sensor_id;sensor_type;location;lat;lon;timestamp;P1;durP1;ratioP1;P2;durP2;ratioP2
22421;SDS011;11378;51.642;7.668;2022-07-29T00:00:59;2.83;;;1.10;;
22421;SDS011;11378;51.642;7.668;2022-07-29T00:03:26;5.05;;;0.90;;
22421;SDS011;11378;51.642;7.668;2022-07-29T00:05:52;1.05;;;0.80;;
22421;SDS011;11378;51.642;7.668;2022-07-29T00:08:19;1.55;;;0.90;;
22421;SDS011;11378;51.642;7.668;2022-07-29T00:10:46;1.65;;;0.98;;
22421;SDS011;11378;51.642;7.668;2022-07-29T00:13:12;3.40;;;1.10;;
22421;SDS011;11378;51.642;7.668;2022-07-29T00:15:39;3.83;;;1.20;;
22421;SDS011;11378;51.642;7.668;2022-07-29T00:18:05;3.10;;;0.95;;
22421;SDS011;11378;51.642;7.668;2022-07-29T00:20:31;1.90;;;0.98;;
22421;SDS011;11378;51.642;7.668;2022-07-29T00:22:58;3.83;;;1.35;;
22421;SDS011;11378;51.642;7.668;2022-07-29T00:25:24;1.55;;;1.10;;
22421;SDS011;11378;51.642;7.668;2022-07-29T00:27:50;4.15;;;1.20;;
22421;SDS011;11378;51.642;7.668;2022-07-29T00:30:17;1.63;;;0.88;;
22421;SDS011;11378;51.642;7.668;2022-07-29T00:32:44;2.42;;;0.88;;
22421;SDS011;11378;51.642;7.668;2022-07-29T00:35:10;3.53;;;0.90;;
22421;SDS011;11378;51.642;7.668;2022-07-29T00:37:59;3.45;;;0.98;;
22421;SDS011;11378;51.642;7.668;2022-07-29T00:40:26;2.30;;;1.10;;
22421;SDS011;11378;51.642;7.668;2022-07-29T00:42:53;1.90;;;1.05;;
22421;SDS011;11378;51.642;7.668;2022-07-29T00:45:19;2.42;;;0.90;;
22421;SDS011;11378;51.642;7.668;2022-07-29T00:47:47;3.83;;;1.38;;
22421;SDS011;11378;51.642;7.668;2022-07-29T00:50:13;3.63;;;1.17;;
22421;SDS011;11378;51.642;7.668;2022-07-29T00:52:40;3.42;;;0.82;;
22421;SDS011;11378;51.642;7.668;2022-07-29T00:55:10;2.88;;;1.27;;
22421;SDS011;11378;51.642;7.668;2022-07-29T00:57:37;1.65;;;1.00;;
22421;SDS011;11378;51.642;7.668;2022-07-29T01:00:04;4.30;;;0.98;;
22421;SDS011;11378;51.642;7.668;2022-07-29T01:02:31;2.83;;;1.13;;
22421;SDS011;11378;51.642;7.668;2022-07-29T01:04:57;2.47;;;1.23;;
22421;SDS011;11378;51.642;7.668;2022-07-29T01:07:25;2.30;;;1.08;;
22421;SDS011;11378;51.642;7.668;2022-07-29T01:09:52;4.40;;;1.15;;
22421;SDS011;11378;51.642;7.668;2022-07-29T01:12:20;2.47;;;1.05;;
22421;SDS011;11378;51.642;7.668;2022-07-29T01:14:47;4.70;;;1.00;;
22421;SDS011;11378;51.642;7.668;2022-07-29T01:17:20;2.63;;;0.90;;
22421;SDS011;11378;51.642;7.668;2022-07-29T01:19:48;2.40;;;1.13;;
22421;SDS011;11378;51.642;7.668;2022-07-29T01:30:22;2.45;;;1.13;;
22421;SDS011;11378;51.642;7.668;2022-07-29T01:32:53;2.47;;;1.00;;
22421;SDS011;11378;51.642;7.668;2022-07-29T01:35:22;2.65;;;0.75;;
22421;SDS011;11378;51.642;7.668;2022-07-29T01:40:46;2.40;;;1.05;;
22421;SDS011;11378;51.642;7.668;2022-07-29T01:43:18;2.75;;;1.30;;
22421;SDS011;11378;51.642;7.668;2022-07-29T01:45:46;2.05;;;0.85;;
22421;SDS011;11378;51.642;7.668;2022-07-29T01:54:01;4.15;;;1.00;;
22421;SDS011;11378;51.642;7.668;2022-07-29T01:56:28;3.28;;;1.40;;
22421;SDS011;11378;51.642;7.668;2022-07-29T01:58:57;3.13;;;1.17;;
22421;SDS011;11378;51.642;7.668;2022-07-29T02:01:24;2.00;;;1.10;;
22421;SDS011;11378;51.642;7.668;2022-07-29T02:03:52;3.75;;;1.20;;
22421;SDS011;11378;51.642;7.668;2022-07-29T02:06:20;4.15;;;1.10;;
22421;SDS011;11378;51.642;7.668;2022-07-29T02:08:47;1.27;;;0.88;;
22421;SDS011;11378;51.642;7.668;2022-07-29T02:11:14;2.25;;;0.90;;
22421;SDS011;11378;51.642;7.668;2022-07-29T02:13:41;1.83;;;0.90;;
22421;SDS011;11378;51.642;7.668;2022-07-29T02:16:09;2.95;;;1.17;;
22421;SDS011;11378;51.642;7.668;2022-07-29T02:18:36;2.78;;;1.33;;
22421;SDS011;11378;51.642;7.668;2022-07-29T02:21:03;2.60;;;0.90;;
22421;SDS011;11378;51.642;7.668;2022-07-29T02:23:31;2.08;;;1.15;;
22421;SDS011;11378;51.642;7.668;2022-07-29T02:25:58;2.67;;;1.20;;
22421;SDS011;11378;51.642;7.668;2022-07-29T02:28:26;2.25;;;0.85;;
22421;SDS011;11378;51.642;7.668;2022-07-29T02:30:54;2.47;;;1.20;;
22421;SDS011;11378;51.642;7.668;2022-07-29T02:33:21;2.28;;;0.90;;
22421;SDS011;11378;51.642;7.668;2022-07-29T02:35:49;1.73;;;1.00;;
22421;SDS011;11378;51.642;7.668;2022-07-29T02:38:16;2.92;;;1.02;;
22421;SDS011;11378;51.642;7.668;2022-07-29T02:41:03;1.75;;;1.08;;
22421;SDS011;11378;51.642;7.668;2022-07-29T02:43:31;3.15;;;1.17;;
22421;SDS011;11378;51.642;7.668;2022-07-29T02:45:57;4.63;;;1.45;;
22421;SDS011;11378;51.642;7.668;2022-07-29T02:48:27;1.38;;;0.80;;
22421;SDS011;11378;51.642;7.668;2022-07-29T02:51:07;2.03;;;1.10;;
22421;SDS011;11378;51.642;7.668;2022-07-29T02:53:34;2.75;;;1.10;;
22421;SDS011;11378;51.642;7.668;2022-07-29T02:56:03;3.50;;;1.02;;
22421;SDS011;11378;51.642;7.668;2022-07-29T02:58:34;2.43;;;0.80;;
22421;SDS011;11378;51.642;7.668;2022-07-29T03:01:04;2.25;;;1.00;;
22421;SDS011;11378;51.642;7.668;2022-07-29T03:03:32;2.65;;;1.05;;
22421;SDS011;11378;51.642;7.668;2022-07-29T03:06:01;2.15;;;1.02;;
22421;SDS011;11378;51.642;7.668;2022-07-29T03:08:27;3.10;;;1.00;;
22421;SDS011;11378;51.642;7.668;2022-07-29T03:10:54;3.65;;;1.05;;
22421;SDS011;11378;51.642;7.668;2022-07-29T03:13:21;3.90;;;0.90;;
22421;SDS011;11378;51.642;7.668;2022-07-29T03:15:48;3.17;;;1.23;;
22421;SDS011;11378;51.642;7.668;2022-07-29T03:18:15;3.75;;;1.58;;
22421;SDS011;11378;51.642;7.668;2022-07-29T03:20:41;2.72;;;1.10;;
22421;SDS011;11378;51.642;7.668;2022-07-29T03:23:08;2.35;;;1.00;;
22421;SDS011;11378;51.642;7.668;2022-07-29T03:25:35;1.30;;;0.90;;
22421;SDS011;11378;51.642;7.668;2022-07-29T03:28:01;2.97;;;1.13;;
22421;SDS011;11378;51.642;7.668;2022-07-29T03:30:28;2.05;;;1.02;;
22421;SDS011;11378;51.642;7.668;2022-07-29T03:32:56;4.07;;;1.20;;
22421;SDS011;11378;51.642;7.668;2022-07-29T03:35:22;4.10;;;1.05;;
22421;SDS011;11378;51.642;7.668;2022-07-29T03:37:50;2.45;;;0.80;;
22421;SDS011;11378;51.642;7.668;2022-07-29T03:40:18;1.70;;;1.20;;
22421;SDS011;11378;51.642;7.668;2022-07-29T03:42:45;1.33;;;0.85;;
22421;SDS011;11378;51.642;7.668;2022-07-29T03:45:13;1.75;;;1.02;;
22421;SDS011;11378;51.642;7.668;2022-07-29T03:47:42;1.83;;;0.90;;
22421;SDS011;11378;51.642;7.668;2022-07-29T03:50:11;2.30;;;1.10;;
22421;SDS011;11378;51.642;7.668;2022-07-29T03:52:40;3.57;;;1.03;;
22421;SDS011;11378;51.642;7.668;2022-07-29T03:55:08;3.95;;;1.20;;
22421;SDS011;11378;51.642;7.668;2022-07-29T03:57:35;3.30;;;1.27;;
22421;SDS011;11378;51.642;7.668;2022-07-29T04:00:03;4.43;;;1.25;;
22421;SDS011;11378;51.642;7.668;2022-07-29T04:02:31;2.65;;;1.20;;
22421;SDS011;11378;51.642;7.668;2022-07-29T04:04:58;3.35;;;1.08;;
22421;SDS011;11378;51.642;7.668;2022-07-29T04:07:24;2.17;;;1.15;;
22421;SDS011;11378;51.642;7.668;2022-07-29T04:09:51;3.30;;;1.30;;
22421;SDS011;11378;51.642;7.668;2022-07-29T04:12:17;3.38;;;1.25;;
22421;SDS011;11378;51.642;7.668;2022-07-29T04:14:43;1.77;;;1.10;;
22421;SDS011;11378;51.642;7.668;2022-07-29T04:17:10;2.33;;;1.27;;
22421;SDS011;11378;51.642;7.668;2022-07-29T04:19:36;3.42;;;1.15;;
22421;SDS011;11378;51.642;7.668;2022-07-29T04:22:03;3.47;;;1.15;;
22421;SDS011;11378;51.642;7.668;2022-07-29T04:24:29;1.95;;;1.00;;
22421;SDS011;11378;51.642;7.668;2022-07-29T04:26:55;2.13;;;1.13;;
22421;SDS011;11378;51.642;7.668;2022-07-29T04:29:22;1.58;;;1.15;;
22421;SDS011;11378;51.642;7.668;2022-07-29T04:31:48;2.38;;;1.38;;
22421;SDS011;11378;51.642;7.668;2022-07-29T04:34:15;3.40;;;0.95;;
22421;SDS011;11378;51.642;7.668;2022-07-29T04:36:41;3.88;;;1.20;;
22421;SDS011;11378;51.642;7.668;2022-07-29T04:39:07;3.40;;;1.02;;
22421;SDS011;11378;51.642;7.668;2022-07-29T04:41:35;2.50;;;1.13;;
22421;SDS011;11378;51.642;7.668;2022-07-29T04:44:02;1.77;;;1.10;;
22421;SDS011;11378;51.642;7.668;2022-07-29T04:46:30;2.97;;;1.42;;
22421;SDS011;11378;51.642;7.668;2022-07-29T04:48:57;3.22;;;1.33;;
22421;SDS011;11378;51.642;7.668;2022-07-29T04:51:23;4.07;;;1.52;;
22421;SDS011;11378;51.642;7.668;2022-07-29T04:53:50;3.88;;;1.25;;
22421;SDS011;11378;51.642;7.668;2022-07-29T04:56:16;2.28;;;1.00;;
22421;SDS011;11378;51.642;7.668;2022-07-29T04:58:42;2.35;;;0.95;;
22421;SDS011;11378;51.642;7.668;2022-07-29T05:01:08;3.42;;;1.08;;
22421;SDS011;11378;51.642;7.668;2022-07-29T05:03:35;3.17;;;1.17;;
22421;SDS011;11378;51.642;7.668;2022-07-29T05:06:01;2.67;;;1.10;;
22421;SDS011;11378;51.642;7.668;2022-07-29T05:08:28;1.92;;;1.17;;
22421;SDS011;11378;51.642;7.668;2022-07-29T05:10:54;2.47;;;1.00;;
22421;SDS011;11378;51.642;7.668;2022-07-29T05:13:20;4.85;;;1.17;;
22421;SDS011;11378;51.642;7.668;2022-07-29T05:15:47;4.82;;;1.30;;
22421;SDS011;11378;51.642;7.668;2022-07-29T05:18:13;2.15;;;1.15;;
22421;SDS011;11378;51.642;7.668;2022-07-29T05:20:39;1.92;;;0.90;;
22421;SDS011;11378;51.642;7.668;2022-07-29T05:23:06;5.00;;;1.13;;
22421;SDS011;11378;51.642;7.668;2022-07-29T05:25:34;1.10;;;1.00;;
22421;SDS011;11378;51.642;7.668;2022-07-29T05:28:02;2.47;;;1.10;;
22421;SDS011;11378;51.642;7.668;2022-07-29T05:30:28;4.60;;;1.30;;
22421;SDS011;11378;51.642;7.668;2022-07-29T05:32:54;1.90;;;1.10;;
22421;SDS011;11378;51.642;7.668;2022-07-29T05:35:21;3.78;;;1.30;;
22421;SDS011;11378;51.642;7.668;2022-07-29T05:37:47;2.13;;;1.10;;
22421;SDS011;11378;51.642;7.668;2022-07-29T05:40:14;1.52;;;0.82;;
22421;SDS011;11378;51.642;7.668;2022-07-29T05:42:40;3.30;;;1.17;;
22421;SDS011;11378;51.642;7.668;2022-07-29T05:45:07;4.55;;;1.00;;
22421;SDS011;11378;51.642;7.668;2022-07-29T05:47:33;2.30;;;1.30;;
22421;SDS011;11378;51.642;7.668;2022-07-29T05:50:00;2.55;;;1.20;;
22421;SDS011;11378;51.642;7.668;2022-07-29T05:52:27;4.15;;;1.20;;
22421;SDS011;11378;51.642;7.668;2022-07-29T05:54:53;2.85;;;1.10;;
22421;SDS011;11378;51.642;7.668;2022-07-29T05:57:22;4.85;;;1.10;;
22421;SDS011;11378;51.642;7.668;2022-07-29T05:59:49;3.30;;;1.20;;
22421;SDS011;11378;51.642;7.668;2022-07-29T06:02:16;1.73;;;0.90;;
22421;SDS011;11378;51.642;7.668;2022-07-29T06:04:42;2.45;;;1.02;;
22421;SDS011;11378;51.642;7.668;2022-07-29T06:07:09;4.53;;;1.10;;
22421;SDS011;11378;51.642;7.668;2022-07-29T06:09:36;2.33;;;0.95;;
22421;SDS011;11378;51.642;7.668;2022-07-29T06:12:02;2.75;;;1.10;;
22421;SDS011;11378;51.642;7.668;2022-07-29T06:14:29;3.00;;;1.00;;
22421;SDS011;11378;51.642;7.668;2022-07-29T06:16:55;2.88;;;0.95;;
22421;SDS011;11378;51.642;7.668;2022-07-29T06:19:21;3.22;;;1.35;;
22421;SDS011;11378;51.642;7.668;2022-07-29T06:21:48;1.40;;;1.17;;
22421;SDS011;11378;51.642;7.668;2022-07-29T06:24:15;2.92;;;1.08;;
22421;SDS011;11378;51.642;7.668;2022-07-29T06:26:42;4.57;;;1.20;;
22421;SDS011;11378;51.642;7.668;2022-07-29T06:29:09;5.18;;;1.08;;
22421;SDS011;11378;51.642;7.668;2022-07-29T06:31:38;2.45;;;1.13;;
22421;SDS011;11378;51.642;7.668;2022-07-29T06:34:05;3.10;;;1.20;;
22421;SDS011;11378;51.642;7.668;2022-07-29T06:36:35;2.13;;;0.95;;
22421;SDS011;11378;51.642;7.668;2022-07-29T06:41:28;4.45;;;1.27;;
22421;SDS011;11378;51.642;7.668;2022-07-29T06:43:55;4.18;;;1.20;;
22421;SDS011;11378;51.642;7.668;2022-07-29T06:46:22;3.50;;;1.25;;
22421;SDS011;11378;51.642;7.668;2022-07-29T06:48:48;2.08;;;1.08;;
22421;SDS011;11378;51.642;7.668;2022-07-29T06:51:15;5.35;;;1.35;;
22421;SDS011;11378;51.642;7.668;2022-07-29T06:53:41;3.63;;;1.15;;
22421;SDS011;11378;51.642;7.668;2022-07-29T06:56:08;2.35;;;1.20;;
22421;SDS011;11378;51.642;7.668;2022-07-29T06:58:34;1.60;;;1.05;;
22421;SDS011;11378;51.642;7.668;2022-07-29T07:01:02;2.45;;;1.02;;
22421;SDS011;11378;51.642;7.668;2022-07-29T07:03:28;2.35;;;1.02;;
22421;SDS011;11378;51.642;7.668;2022-07-29T07:05:55;2.72;;;1.05;;
22421;SDS011;11378;51.642;7.668;2022-07-29T07:08:21;3.17;;;1.10;;
22421;SDS011;11378;51.642;7.668;2022-07-29T07:10:48;1.75;;;1.05;;
22421;SDS011;11378;51.642;7.668;2022-07-29T07:13:15;2.95;;;1.10;;
22421;SDS011;11378;51.642;7.668;2022-07-29T07:15:43;3.70;;;0.95;;
22421;SDS011;11378;51.642;7.668;2022-07-29T07:18:09;1.92;;;1.15;;
22421;SDS011;11378;51.642;7.668;2022-07-29T07:20:35;2.30;;;1.02;;
22421;SDS011;11378;51.642;7.668;2022-07-29T07:23:01;3.65;;;1.13;;
22421;SDS011;11378;51.642;7.668;2022-07-29T07:25:28;1.83;;;1.20;;
22421;SDS011;11378;51.642;7.668;2022-07-29T07:27:55;4.82;;;1.30;;
22421;SDS011;11378;51.642;7.668;2022-07-29T07:30:21;1.77;;;1.05;;
22421;SDS011;11378;51.642;7.668;2022-07-29T07:32:47;1.98;;;1.08;;
22421;SDS011;11378;51.642;7.668;2022-07-29T07:35:13;1.85;;;1.05;;
22421;SDS011;11378;51.642;7.668;2022-07-29T07:37:39;4.05;;;1.10;;
22421;SDS011;11378;51.642;7.668;2022-07-29T07:40:06;1.60;;;1.00;;
22421;SDS011;11378;51.642;7.668;2022-07-29T07:42:33;1.58;;;1.00;;
22421;SDS011;11378;51.642;7.668;2022-07-29T07:44:59;4.15;;;1.10;;
22421;SDS011;11378;51.642;7.668;2022-07-29T07:47:26;3.10;;;1.10;;
22421;SDS011;11378;51.642;7.668;2022-07-29T07:49:52;3.30;;;1.25;;
22421;SDS011;11378;51.642;7.668;2022-07-29T07:52:20;7.15;;;1.67;;
22421;SDS011;11378;51.642;7.668;2022-07-29T07:54:47;5.13;;;1.50;;
22421;SDS011;11378;51.642;7.668;2022-07-29T07:57:14;4.65;;;1.60;;
22421;SDS011;11378;51.642;7.668;2022-07-29T07:59:40;4.85;;;1.30;;
22421;SDS011;11378;51.642;7.668;2022-07-29T08:02:08;2.88;;;1.35;;
22421;SDS011;11378;51.642;7.668;2022-07-29T08:04:35;10.48;;;1.40;;
22421;SDS011;11378;51.642;7.668;2022-07-29T08:07:01;4.82;;;1.33;;
22421;SDS011;11378;51.642;7.668;2022-07-29T08:09:28;7.70;;;1.38;;
22421;SDS011;11378;51.642;7.668;2022-07-29T08:11:55;5.10;;;1.45;;
22421;SDS011;11378;51.642;7.668;2022-07-29T08:14:22;3.08;;;1.40;;
22421;SDS011;11378;51.642;7.668;2022-07-29T08:16:49;6.50;;;1.40;;
22421;SDS011;11378;51.642;7.668;2022-07-29T08:19:16;11.35;;;1.40;;
22421;SDS011;11378;51.642;7.668;2022-07-29T08:21:43;7.07;;;1.58;;
22421;SDS011;11378;51.642;7.668;2022-07-29T08:24:09;5.95;;;1.42;;
22421;SDS011;11378;51.642;7.668;2022-07-29T08:26:54;3.20;;;1.20;;
22421;SDS011;11378;51.642;7.668;2022-07-29T08:29:21;2.10;;;1.23;;
22421;SDS011;11378;51.642;7.668;2022-07-29T08:31:47;4.50;;;1.10;;
22421;SDS011;11378;51.642;7.668;2022-07-29T08:34:14;5.75;;;1.20;;
22421;SDS011;11378;51.642;7.668;2022-07-29T08:36:40;3.63;;;1.30;;
22421;SDS011;11378;51.642;7.668;2022-07-29T08:39:07;2.20;;;1.00;;
22421;SDS011;11378;51.642;7.668;2022-07-29T08:41:33;5.05;;;1.27;;
22421;SDS011;11378;51.642;7.668;2022-07-29T08:44:00;1.83;;;1.05;;
22421;SDS011;11378;51.642;7.668;2022-07-29T08:46:26;5.93;;;1.38;;
22421;SDS011;11378;51.642;7.668;2022-07-29T08:48:52;4.03;;;1.02;;
22421;SDS011;11378;51.642;7.668;2022-07-29T08:51:19;4.75;;;1.13;;
22421;SDS011;11378;51.642;7.668;2022-07-29T08:53:47;4.45;;;1.05;;
22421;SDS011;11378;51.642;7.668;2022-07-29T08:56:14;3.35;;;1.20;;
22421;SDS011;11378;51.642;7.668;2022-07-29T08:58:47;8.77;;;2.15;;
22421;SDS011;11378;51.642;7.668;2022-07-29T09:01:17;4.30;;;1.30;;
22421;SDS011;11378;51.642;7.668;2022-07-29T09:03:43;6.90;;;1.40;;
22421;SDS011;11378;51.642;7.668;2022-07-29T09:06:12;4.60;;;1.38;;
22421;SDS011;11378;51.642;7.668;2022-07-29T09:08:39;4.15;;;1.27;;
22421;SDS011;11378;51.642;7.668;2022-07-29T09:11:06;3.50;;;1.27;;
22421;SDS011;11378;51.642;7.668;2022-07-29T09:13:33;2.53;;;1.30;;
22421;SDS011;11378;51.642;7.668;2022-07-29T09:16:00;4.75;;;1.38;;
22421;SDS011;11378;51.642;7.668;2022-07-29T09:18:40;5.68;;;1.50;;
22421;SDS011;11378;51.642;7.668;2022-07-29T09:21:08;6.22;;;1.30;;
22421;SDS011;11378;51.642;7.668;2022-07-29T09:24:07;3.83;;;1.33;;
22421;SDS011;11378;51.642;7.668;2022-07-29T09:29:01;6.20;;;1.45;;
22421;SDS011;11378;51.642;7.668;2022-07-29T09:31:34;5.10;;;1.30;;
22421;SDS011;11378;51.642;7.668;2022-07-29T09:34:00;4.65;;;1.30;;
22421;SDS011;11378;51.642;7.668;2022-07-29T09:36:27;4.57;;;1.90;;
22421;SDS011;11378;51.642;7.668;2022-07-29T09:38:56;3.95;;;1.40;;
22421;SDS011;11378;51.642;7.668;2022-07-29T09:41:24;8.75;;;1.80;;
22421;SDS011;11378;51.642;7.668;2022-07-29T09:43:54;5.05;;;1.20;;
22421;SDS011;11378;51.642;7.668;2022-07-29T09:46:20;3.35;;;1.35;;
22421;SDS011;11378;51.642;7.668;2022-07-29T09:49:05;9.13;;;1.73;;
22421;SDS011;11378;51.642;7.668;2022-07-29T09:51:32;6.47;;;1.58;;
22421;SDS011;11378;51.642;7.668;2022-07-29T09:53:58;6.28;;;1.30;;
22421;SDS011;11378;51.642;7.668;2022-07-29T09:56:40;4.28;;;1.70;;
22421;SDS011;11378;51.642;7.668;2022-07-29T09:59:07;4.45;;;1.80;;
22421;SDS011;11378;51.642;7.668;2022-07-29T10:01:33;3.40;;;1.33;;
22421;SDS011;11378;51.642;7.668;2022-07-29T10:04:01;12.07;;;1.92;;
22421;SDS011;11378;51.642;7.668;2022-07-29T10:06:27;5.07;;;1.80;;
22421;SDS011;11378;51.642;7.668;2022-07-29T10:08:54;10.45;;;1.23;;
22421;SDS011;11378;51.642;7.668;2022-07-29T10:11:21;4.05;;;1.30;;
22421;SDS011;11378;51.642;7.668;2022-07-29T10:13:47;5.22;;;1.50;;
22421;SDS011;11378;51.642;7.668;2022-07-29T10:16:14;3.97;;;1.48;;
22421;SDS011;11378;51.642;7.668;2022-07-29T10:18:42;5.18;;;1.27;;
22421;SDS011;11378;51.642;7.668;2022-07-29T10:21:09;3.60;;;1.65;;
22421;SDS011;11378;51.642;7.668;2022-07-29T10:23:35;3.30;;;1.25;;
22421;SDS011;11378;51.642;7.668;2022-07-29T10:26:03;3.58;;;1.50;;
22421;SDS011;11378;51.642;7.668;2022-07-29T10:28:32;2.97;;;1.20;;
22421;SDS011;11378;51.642;7.668;2022-07-29T10:31:00;4.88;;;1.40;;
22421;SDS011;11378;51.642;7.668;2022-07-29T10:34:11;6.00;;;1.65;;
22421;SDS011;11378;51.642;7.668;2022-07-29T10:36:27;5.03;;;1.48;;
22421;SDS011;11378;51.642;7.668;2022-07-29T10:41:47;5.05;;;1.30;;
22421;SDS011;11378;51.642;7.668;2022-07-29T10:44:23;4.53;;;1.17;;
22421;SDS011;11378;51.642;7.668;2022-07-29T10:46:51;2.15;;;1.30;;
22421;SDS011;11378;51.642;7.668;2022-07-29T10:49:22;2.80;;;1.25;;
22421;SDS011;11378;51.642;7.668;2022-07-29T10:57:18;3.08;;;1.20;;
22421;SDS011;11378;51.642;7.668;2022-07-29T10:59:46;4.25;;;1.70;;
22421;SDS011;11378;51.642;7.668;2022-07-29T11:07:27;6.32;;;1.40;;
22421;SDS011;11378;51.642;7.668;2022-07-29T11:15:20;6.97;;;1.50;;
22421;SDS011;11378;51.642;7.668;2022-07-29T11:23:00;6.68;;;1.60;;
22421;SDS011;11378;51.642;7.668;2022-07-29T11:25:27;7.72;;;1.50;;
22421;SDS011;11378;51.642;7.668;2022-07-29T11:27:55;5.45;;;1.80;;
22421;SDS011;11378;51.642;7.668;2022-07-29T11:30:47;11.02;;;2.20;;
22421;SDS011;11378;51.642;7.668;2022-07-29T11:33:27;5.75;;;2.03;;
22421;SDS011;11378;51.642;7.668;2022-07-29T11:43:46;5.28;;;2.20;;
22421;SDS011;11378;51.642;7.668;2022-07-29T11:46:13;8.77;;;1.95;;
22421;SDS011;11378;51.642;7.668;2022-07-29T11:48:42;6.50;;;2.17;;
22421;SDS011;11378;51.642;7.668;2022-07-29T11:51:09;12.73;;;2.75;;
22421;SDS011;11378;51.642;7.668;2022-07-29T11:53:39;8.00;;;1.95;;
22421;SDS011;11378;51.642;7.668;2022-07-29T11:56:08;6.15;;;2.08;;
22421;SDS011;11378;51.642;7.668;2022-07-29T11:58:34;11.43;;;2.38;;
22421;SDS011;11378;51.642;7.668;2022-07-29T12:01:02;4.38;;;2.05;;
22421;SDS011;11378;51.642;7.668;2022-07-29T12:03:29;7.43;;;2.45;;
22421;SDS011;11378;51.642;7.668;2022-07-29T12:05:56;5.07;;;2.20;;
22421;SDS011;11378;51.642;7.668;2022-07-29T12:08:22;5.15;;;2.20;;
22421;SDS011;11378;51.642;7.668;2022-07-29T12:10:51;7.47;;;1.95;;
22421;SDS011;11378;51.642;7.668;2022-07-29T12:13:19;8.90;;;2.38;;
22421;SDS011;11378;51.642;7.668;2022-07-29T12:15:53;6.82;;;2.08;;
22421;SDS011;11378;51.642;7.668;2022-07-29T12:18:20;7.57;;;2.10;;
22421;SDS011;11378;51.642;7.668;2022-07-29T12:20:47;10.30;;;2.20;;
22421;SDS011;11378;51.642;7.668;2022-07-29T12:23:13;10.02;;;2.22;;
22421;SDS011;11378;51.642;7.668;2022-07-29T12:25:42;10.07;;;2.08;;
22421;SDS011;11378;51.642;7.668;2022-07-29T12:28:11;7.47;;;1.92;;
22421;SDS011;11378;51.642;7.668;2022-07-29T12:30:45;9.20;;;1.92;;
22421;SDS011;11378;51.642;7.668;2022-07-29T12:33:13;9.68;;;2.33;;
22421;SDS011;11378;51.642;7.668;2022-07-29T12:35:40;5.63;;;2.05;;
22421;SDS011;11378;51.642;7.668;2022-07-29T12:38:08;6.85;;;1.98;;
22421;SDS011;11378;51.642;7.668;2022-07-29T12:40:35;7.63;;;2.20;;
22421;SDS011;11378;51.642;7.668;2022-07-29T12:45:32;6.07;;;2.25;;
22421;SDS011;11378;51.642;7.668;2022-07-29T12:47:59;9.98;;;2.53;;
22421;SDS011;11378;51.642;7.668;2022-07-29T12:50:25;7.40;;;2.35;;
22421;SDS011;11378;51.642;7.668;2022-07-29T12:52:52;3.30;;;2.10;;
22421;SDS011;11378;51.642;7.668;2022-07-29T12:58:03;7.88;;;2.40;;
22421;SDS011;11378;51.642;7.668;2022-07-29T13:00:29;7.70;;;2.53;;
22421;SDS011;11378;51.642;7.668;2022-07-29T13:02:57;7.10;;;2.30;;
22421;SDS011;11378;51.642;7.668;2022-07-29T13:05:24;8.10;;;2.10;;
22421;SDS011;11378;51.642;7.668;2022-07-29T13:07:50;5.00;;;2.00;;
22421;SDS011;11378;51.642;7.668;2022-07-29T13:10:18;7.57;;;1.92;;
22421;SDS011;11378;51.642;7.668;2022-07-29T13:15:29;5.28;;;2.50;;
22421;SDS011;11378;51.642;7.668;2022-07-29T13:17:55;3.83;;;1.88;;
22421;SDS011;11378;51.642;7.668;2022-07-29T13:20:25;5.55;;;2.20;;
22421;SDS011;11378;51.642;7.668;2022-07-29T13:22:54;8.38;;;2.17;;
22421;SDS011;11378;51.642;7.668;2022-07-29T13:25:24;7.68;;;2.38;;
22421;SDS011;11378;51.642;7.668;2022-07-29T13:27:50;9.07;;;2.10;;
22421;SDS011;11378;51.642;7.668;2022-07-29T13:30:19;7.68;;;2.30;;
22421;SDS011;11378;51.642;7.668;2022-07-29T13:32:46;9.63;;;3.15;;
22421;SDS011;11378;51.642;7.668;2022-07-29T13:35:12;6.82;;;2.50;;
22421;SDS011;11378;51.642;7.668;2022-07-29T13:37:39;6.50;;;2.50;;
22421;SDS011;11378;51.642;7.668;2022-07-29T13:40:08;9.40;;;2.60;;
22421;SDS011;11378;51.642;7.668;2022-07-29T13:42:35;4.15;;;2.42;;
22421;SDS011;11378;51.642;7.668;2022-07-29T13:45:02;5.47;;;2.30;;
22421;SDS011;11378;51.642;7.668;2022-07-29T13:47:28;13.13;;;3.30;;
22421;SDS011;11378;51.642;7.668;2022-07-29T13:49:55;6.25;;;2.65;;
22421;SDS011;11378;51.642;7.668;2022-07-29T13:52:21;6.18;;;2.63;;
22421;SDS011;11378;51.642;7.668;2022-07-29T13:54:47;8.05;;;2.67;;
22421;SDS011;11378;51.642;7.668;2022-07-29T13:57:14;7.95;;;2.97;;
22421;SDS011;11378;51.642;7.668;2022-07-29T13:59:41;7.40;;;2.67;;
22421;SDS011;11378;51.642;7.668;2022-07-29T14:02:07;5.82;;;2.65;;
22421;SDS011;11378;51.642;7.668;2022-07-29T14:04:34;6.15;;;2.70;;
22421;SDS011;11378;51.642;7.668;2022-07-29T14:07:01;11.40;;;2.60;;
22421;SDS011;11378;51.642;7.668;2022-07-29T14:09:27;6.03;;;2.75;;
22421;SDS011;11378;51.642;7.668;2022-07-29T14:11:54;8.48;;;2.50;;
22421;SDS011;11378;51.642;7.668;2022-07-29T14:14:21;7.10;;;2.65;;
22421;SDS011;11378;51.642;7.668;2022-07-29T14:16:47;6.43;;;2.63;;
22421;SDS011;11378;51.642;7.668;2022-07-29T14:19:13;5.60;;;2.70;;
22421;SDS011;11378;51.642;7.668;2022-07-29T14:21:39;7.30;;;2.70;;
22421;SDS011;11378;51.642;7.668;2022-07-29T14:24:06;7.88;;;2.63;;
22421;SDS011;11378;51.642;7.668;2022-07-29T14:26:32;6.15;;;2.20;;
22421;SDS011;11378;51.642;7.668;2022-07-29T14:28:59;10.35;;;2.58;;
22421;SDS011;11378;51.642;7.668;2022-07-29T14:31:25;5.43;;;2.28;;
22421;SDS011;11378;51.642;7.668;2022-07-29T14:33:51;7.00;;;2.15;;
22421;SDS011;11378;51.642;7.668;2022-07-29T14:36:17;3.70;;;1.83;;
22421;SDS011;11378;51.642;7.668;2022-07-29T14:38:43;7.53;;;2.58;;
22421;SDS011;11378;51.642;7.668;2022-07-29T14:41:10;6.38;;;2.55;;
22421;SDS011;11378;51.642;7.668;2022-07-29T14:43:36;5.57;;;2.15;;
22421;SDS011;11378;51.642;7.668;2022-07-29T14:46:02;8.20;;;2.47;;
22421;SDS011;11378;51.642;7.668;2022-07-29T14:48:28;6.82;;;2.40;;
22421;SDS011;11378;51.642;7.668;2022-07-29T14:50:54;4.65;;;2.30;;
22421;SDS011;11378;51.642;7.668;2022-07-29T14:53:21;4.47;;;1.98;;
22421;SDS011;11378;51.642;7.668;2022-07-29T14:55:48;5.00;;;2.55;;
22421;SDS011;11378;51.642;7.668;2022-07-29T14:58:14;5.13;;;2.22;;
22421;SDS011;11378;51.642;7.668;2022-07-29T15:00:40;4.68;;;2.30;;
22421;SDS011;11378;51.642;7.668;2022-07-29T15:03:07;7.43;;;2.88;;
22421;SDS011;11378;51.642;7.668;2022-07-29T15:05:36;6.35;;;2.50;;
22421;SDS011;11378;51.642;7.668;2022-07-29T15:08:03;13.45;;;2.97;;
22421;SDS011;11378;51.642;7.668;2022-07-29T15:10:29;6.82;;;2.08;;
22421;SDS011;11378;51.642;7.668;2022-07-29T15:12:55;7.78;;;2.55;;
22421;SDS011;11378;51.642;7.668;2022-07-29T15:15:21;13.50;;;2.40;;
22421;SDS011;11378;51.642;7.668;2022-07-29T15:17:47;9.77;;;3.00;;
22421;SDS011;11378;51.642;7.668;2022-07-29T15:20:14;9.13;;;2.58;;
22421;SDS011;11378;51.642;7.668;2022-07-29T15:22:46;6.00;;;2.15;;
22421;SDS011;11378;51.642;7.668;2022-07-29T15:25:12;8.13;;;1.98;;
22421;SDS011;11378;51.642;7.668;2022-07-29T15:27:38;13.25;;;2.30;;
22421;SDS011;11378;51.642;7.668;2022-07-29T15:30:05;36.00;;;3.58;;
22421;SDS011;11378;51.642;7.668;2022-07-29T15:32:31;22.92;;;2.92;;
22421;SDS011;11378;51.642;7.668;2022-07-29T15:34:57;15.70;;;2.53;;
22421;SDS011;11378;51.642;7.668;2022-07-29T15:37:23;21.00;;;3.10;;
22421;SDS011;11378;51.642;7.668;2022-07-29T15:39:50;11.70;;;3.05;;
22421;SDS011;11378;51.642;7.668;2022-07-29T15:42:16;14.55;;;2.78;;
22421;SDS011;11378;51.642;7.668;2022-07-29T15:44:42;14.00;;;2.85;;
22421;SDS011;11378;51.642;7.668;2022-07-29T15:47:09;16.30;;;2.35;;
22421;SDS011;11378;51.642;7.668;2022-07-29T15:49:36;15.20;;;2.55;;
22421;SDS011;11378;51.642;7.668;2022-07-29T15:52:04;5.38;;;1.92;;